sensor_id;sensor_type;location;lat;lon;timestamp;P1;durP1;ratioP1;P2;durP2;ratioP2
59607;SDS011;45426;44.726;10.390;2022-10-16T00:00:52;22.40;;;12.63;;
59607;SDS011;45426;44.726;10.390;2022-10-16T00:03:18;25.83;;;12.57;;
59607;SDS011;45426;44.726;10.390;2022-10-16T00:05:43;22.63;;;12.40;;
59607;SDS011;45426;44.726;10.390;2022-10-16T00:08:12;22.63;;;11.38;;
59607;SDS011;45426;44.726;10.390;2022-10-16T00:10:38;22.63;;;12.05;;
59607;SDS011;45426;44.726;10.390;2022-10-16T00:13:04;24.25;;;11.68;;
59607;SDS011;45426;44.726;10.390;2022-10-16T00:15:30;21.05;;;10.90;;
59607;SDS011;45426;44.726;10.390;2022-10-16T00:17:58;19.13;;;11.25;;
59607;SDS011;45426;44.726;10.390;2022-10-16T00:20:23;20.75;;;11.38;;
59607;SDS011;45426;44.726;10.390;2022-10-16T00:22:49;23.00;;;12.20;;
59607;SDS011;45426;44.726;10.390;2022-10-16T00:25:14;20.48;;;11.70;;
59607;SDS011;45426;44.726;10.390;2022-10-16T00:27:43;20.70;;;11.25;;
59607;SDS011;45426;44.726;10.390;2022-10-16T00:30:08;18.88;;;11.40;;
59607;SDS011;45426;44.726;10.390;2022-10-16T00:32:34;23.52;;;12.55;;
59607;SDS011;45426;44.726;10.390;2022-10-16T00:34:59;21.45;;;12.52;;
59607;SDS011;45426;44.726;10.390;2022-10-16T00:37:25;20.23;;;11.35;;
59607;SDS011;45426;44.726;10.390;2022-10-16T00:39:50;21.10;;;12.10;;
59607;SDS011;45426;44.726;10.390;2022-10-16T00:42:16;24.88;;;12.73;;
59607;SDS011;45426;44.726;10.390;2022-10-16T00:44:45;22.60;;;12.60;;
59607;SDS011;45426;44.726;10.390;2022-10-16T00:47:13;22.25;;;12.55;;
59607;SDS011;45426;44.726;10.390;2022-10-16T00:49:44;21.95;;;13.23;;
59607;SDS011;45426;44.726;10.390;2022-10-16T00:52:11;23.52;;;12.68;;
59607;SDS011;45426;44.726;10.390;2022-10-16T00:54:39;23.38;;;12.27;;
59607;SDS011;45426;44.726;10.390;2022-10-16T00:57:05;23.38;;;12.55;;
59607;SDS011;45426;44.726;10.390;2022-10-16T01:01:58;23.88;;;12.18;;
59607;SDS011;45426;44.726;10.390;2022-10-16T01:04:25;21.05;;;11.75;;
59607;SDS011;45426;44.726;10.390;2022-10-16T01:09:34;23.52;;;12.63;;
59607;SDS011;45426;44.726;10.390;2022-10-16T01:12:16;22.65;;;12.10;;
59607;SDS011;45426;44.726;10.390;2022-10-16T01:15:04;24.58;;;12.02;;
59607;SDS011;45426;44.726;10.390;2022-10-16T01:17:35;23.55;;;11.90;;
59607;SDS011;45426;44.726;10.390;2022-10-16T01:22:46;19.65;;;10.23;;
59607;SDS011;45426;44.726;10.390;2022-10-16T01:28:28;20.63;;;10.43;;
59607;SDS011;45426;44.726;10.390;2022-10-16T01:31:02;21.25;;;10.60;;
59607;SDS011;45426;44.726;10.390;2022-10-16T01:33:30;18.80;;;11.07;;
59607;SDS011;45426;44.726;10.390;2022-10-16T01:36:05;19.42;;;10.75;;
59607;SDS011;45426;44.726;10.390;2022-10-16T01:38:37;20.50;;;11.32;;
59607;SDS011;45426;44.726;10.390;2022-10-16T01:41:06;22.02;;;11.85;;
59607;SDS011;45426;44.726;10.390;2022-10-16T01:43:49;21.80;;;12.38;;
59607;SDS011;45426;44.726;10.390;2022-10-16T01:46:27;22.73;;;12.55;;
59607;SDS011;45426;44.726;10.390;2022-10-16T01:48:55;21.67;;;12.07;;
59607;SDS011;45426;44.726;10.390;2022-10-16T01:51:22;24.92;;;13.55;;
59607;SDS011;45426;44.726;10.390;2022-10-16T01:53:51;24.27;;;13.30;;
59607;SDS011;45426;44.726;10.390;2022-10-16T01:56:20;25.80;;;13.70;;
59607;SDS011;45426;44.726;10.390;2022-10-16T01:58:55;24.40;;;13.93;;
59607;SDS011;45426;44.726;10.390;2022-10-16T02:01:26;25.10;;;13.68;;
59607;SDS011;45426;44.726;10.390;2022-10-16T02:03:56;25.80;;;14.50;;
59607;SDS011;45426;44.726;10.390;2022-10-16T02:06:26;30.00;;;14.10;;
59607;SDS011;45426;44.726;10.390;2022-10-16T02:08:51;28.73;;;15.00;;
59607;SDS011;45426;44.726;10.390;2022-10-16T02:11:18;25.38;;;14.57;;
59607;SDS011;45426;44.726;10.390;2022-10-16T02:13:45;25.05;;;13.75;;
59607;SDS011;45426;44.726;10.390;2022-10-16T02:16:16;25.25;;;13.60;;
59607;SDS011;45426;44.726;10.390;2022-10-16T02:18:42;24.77;;;13.00;;
59607;SDS011;45426;44.726;10.390;2022-10-16T02:21:14;23.83;;;12.75;;
59607;SDS011;45426;44.726;10.390;2022-10-16T02:26:45;25.30;;;13.73;;
59607;SDS011;45426;44.726;10.390;2022-10-16T02:29:19;22.95;;;12.13;;
59607;SDS011;45426;44.726;10.390;2022-10-16T02:31:49;26.75;;;13.75;;
59607;SDS011;45426;44.726;10.390;2022-10-16T02:34:18;21.23;;;13.10;;
59607;SDS011;45426;44.726;10.390;2022-10-16T02:36:47;23.65;;;13.00;;
59607;SDS011;45426;44.726;10.390;2022-10-16T02:39:14;23.13;;;13.20;;
59607;SDS011;45426;44.726;10.390;2022-10-16T02:41:41;24.38;;;13.57;;
59607;SDS011;45426;44.726;10.390;2022-10-16T02:44:06;23.98;;;13.63;;
59607;SDS011;45426;44.726;10.390;2022-10-16T02:46:31;26.85;;;13.57;;
59607;SDS011;45426;44.726;10.390;2022-10-16T02:48:57;23.08;;;12.85;;
59607;SDS011;45426;44.726;10.390;2022-10-16T02:51:22;23.88;;;14.02;;
59607;SDS011;45426;44.726;10.390;2022-10-16T02:53:48;27.48;;;13.63;;
59607;SDS011;45426;44.726;10.390;2022-10-16T02:56:13;25.58;;;13.52;;
59607;SDS011;45426;44.726;10.390;2022-10-16T02:58:38;23.00;;;13.52;;
59607;SDS011;45426;44.726;10.390;2022-10-16T03:01:04;22.27;;;13.48;;
59607;SDS011;45426;44.726;10.390;2022-10-16T03:03:29;24.92;;;13.73;;
59607;SDS011;45426;44.726;10.390;2022-10-16T03:05:55;24.77;;;14.30;;
59607;SDS011;45426;44.726;10.390;2022-10-16T03:08:20;23.55;;;13.40;;
59607;SDS011;45426;44.726;10.390;2022-10-16T03:10:48;24.02;;;14.20;;
59607;SDS011;45426;44.726;10.390;2022-10-16T03:13:14;24.90;;;13.90;;
59607;SDS011;45426;44.726;10.390;2022-10-16T03:15:39;23.58;;;13.50;;
59607;SDS011;45426;44.726;10.390;2022-10-16T03:18:05;23.30;;;13.60;;
59607;SDS011;45426;44.726;10.390;2022-10-16T03:20:30;25.67;;;13.07;;
59607;SDS011;45426;44.726;10.390;2022-10-16T03:22:56;23.38;;;13.25;;
59607;SDS011;45426;44.726;10.390;2022-10-16T03:25:21;23.35;;;13.00;;
59607;SDS011;45426;44.726;10.390;2022-10-16T03:27:46;20.58;;;13.38;;
59607;SDS011;45426;44.726;10.390;2022-10-16T03:30:12;23.17;;;13.43;;
59607;SDS011;45426;44.726;10.390;2022-10-16T03:32:37;26.67;;;13.38;;
59607;SDS011;45426;44.726;10.390;2022-10-16T03:35:03;23.10;;;13.65;;
59607;SDS011;45426;44.726;10.390;2022-10-16T03:37:32;25.35;;;12.88;;
59607;SDS011;45426;44.726;10.390;2022-10-16T03:39:57;25.75;;;13.30;;
59607;SDS011;45426;44.726;10.390;2022-10-16T03:42:22;22.45;;;11.70;;
59607;SDS011;45426;44.726;10.390;2022-10-16T03:44:49;24.45;;;13.25;;
59607;SDS011;45426;44.726;10.390;2022-10-16T03:47:14;22.50;;;12.63;;
59607;SDS011;45426;44.726;10.390;2022-10-16T03:49:40;26.05;;;13.13;;
59607;SDS011;45426;44.726;10.390;2022-10-16T03:52:05;22.80;;;12.95;;
59607;SDS011;45426;44.726;10.390;2022-10-16T03:54:30;23.50;;;12.60;;
59607;SDS011;45426;44.726;10.390;2022-10-16T03:56:56;21.67;;;12.45;;
59607;SDS011;45426;44.726;10.390;2022-10-16T03:59:21;23.83;;;12.45;;
59607;SDS011;45426;44.726;10.390;2022-10-16T04:01:47;23.60;;;12.13;;
59607;SDS011;45426;44.726;10.390;2022-10-16T04:04:12;24.30;;;11.73;;
59607;SDS011;45426;44.726;10.390;2022-10-16T04:06:37;23.23;;;11.73;;
59607;SDS011;45426;44.726;10.390;2022-10-16T04:09:03;22.85;;;11.90;;
59607;SDS011;45426;44.726;10.390;2022-10-16T04:11:28;20.48;;;11.20;;
59607;SDS011;45426;44.726;10.390;2022-10-16T04:13:54;19.80;;;11.30;;
59607;SDS011;45426;44.726;10.390;2022-10-16T04:16:19;21.33;;;11.27;;
59607;SDS011;45426;44.726;10.390;2022-10-16T04:18:45;21.55;;;11.18;;
59607;SDS011;45426;44.726;10.390;2022-10-16T04:21:10;18.60;;;10.35;;
59607;SDS011;45426;44.726;10.390;2022-10-16T04:23:36;17.67;;;9.57;;
59607;SDS011;45426;44.726;10.390;2022-10-16T04:26:01;19.83;;;10.48;;
59607;SDS011;45426;44.726;10.390;2022-10-16T04:28:27;20.63;;;10.23;;
59607;SDS011;45426;44.726;10.390;2022-10-16T04:30:53;20.35;;;10.05;;
59607;SDS011;45426;44.726;10.390;2022-10-16T04:33:18;18.42;;;9.43;;
59607;SDS011;45426;44.726;10.390;2022-10-16T04:35:44;16.83;;;9.35;;
59607;SDS011;45426;44.726;10.390;2022-10-16T04:38:09;17.65;;;9.30;;
59607;SDS011;45426;44.726;10.390;2022-10-16T04:40:34;19.90;;;10.18;;
59607;SDS011;45426;44.726;10.390;2022-10-16T04:43:03;17.92;;;9.65;;
59607;SDS011;45426;44.726;10.390;2022-10-16T04:45:29;22.88;;;10.15;;
59607;SDS011;45426;44.726;10.390;2022-10-16T04:47:58;22.70;;;9.77;;
59607;SDS011;45426;44.726;10.390;2022-10-16T04:50:24;16.05;;;9.38;;
59607;SDS011;45426;44.726;10.390;2022-10-16T04:52:49;16.48;;;9.35;;
59607;SDS011;45426;44.726;10.390;2022-10-16T04:55:15;20.17;;;10.35;;
59607;SDS011;45426;44.726;10.390;2022-10-16T04:57:40;18.33;;;9.63;;
59607;SDS011;45426;44.726;10.390;2022-10-16T05:00:06;20.65;;;9.98;;
59607;SDS011;45426;44.726;10.390;2022-10-16T05:02:33;16.90;;;8.90;;
59607;SDS011;45426;44.726;10.390;2022-10-16T05:04:58;20.55;;;10.13;;
59607;SDS011;45426;44.726;10.390;2022-10-16T05:07:23;20.15;;;9.75;;
59607;SDS011;45426;44.726;10.390;2022-10-16T05:09:49;15.82;;;9.13;;
59607;SDS011;45426;44.726;10.390;2022-10-16T05:12:14;16.75;;;8.90;;
59607;SDS011;45426;44.726;10.390;2022-10-16T05:14:40;15.70;;;9.07;;
59607;SDS011;45426;44.726;10.390;2022-10-16T05:17:05;15.27;;;8.98;;
59607;SDS011;45426;44.726;10.390;2022-10-16T05:19:31;15.57;;;8.50;;
59607;SDS011;45426;44.726;10.390;2022-10-16T05:21:56;15.88;;;8.43;;
59607;SDS011;45426;44.726;10.390;2022-10-16T05:24:22;17.05;;;8.90;;
59607;SDS011;45426;44.726;10.390;2022-10-16T05:26:48;14.13;;;8.55;;
59607;SDS011;45426;44.726;10.390;2022-10-16T05:29:13;16.08;;;9.02;;
59607;SDS011;45426;44.726;10.390;2022-10-16T05:31:39;19.05;;;8.85;;
59607;SDS011;45426;44.726;10.390;2022-10-16T05:34:05;15.32;;;8.68;;
59607;SDS011;45426;44.726;10.390;2022-10-16T05:36:30;15.00;;;8.70;;
59607;SDS011;45426;44.726;10.390;2022-10-16T05:38:56;19.00;;;9.60;;
59607;SDS011;45426;44.726;10.390;2022-10-16T05:41:21;15.15;;;8.63;;
59607;SDS011;45426;44.726;10.390;2022-10-16T05:43:48;15.50;;;8.50;;
59607;SDS011;45426;44.726;10.390;2022-10-16T05:46:14;16.58;;;8.82;;
59607;SDS011;45426;44.726;10.390;2022-10-16T05:48:40;16.58;;;8.60;;
59607;SDS011;45426;44.726;10.390;2022-10-16T05:51:06;14.32;;;7.88;;
59607;SDS011;45426;44.726;10.390;2022-10-16T05:53:35;16.13;;;8.55;;
59607;SDS011;45426;44.726;10.390;2022-10-16T05:56:01;15.50;;;8.20;;
59607;SDS011;45426;44.726;10.390;2022-10-16T05:58:28;15.68;;;8.35;;
59607;SDS011;45426;44.726;10.390;2022-10-16T06:01:00;13.65;;;7.47;;
59607;SDS011;45426;44.726;10.390;2022-10-16T06:03:29;14.75;;;7.47;;
59607;SDS011;45426;44.726;10.390;2022-10-16T06:05:54;16.58;;;7.20;;
59607;SDS011;45426;44.726;10.390;2022-10-16T06:08:20;13.38;;;6.85;;
59607;SDS011;45426;44.726;10.390;2022-10-16T06:10:47;15.27;;;7.03;;
59607;SDS011;45426;44.726;10.390;2022-10-16T06:13:13;13.20;;;7.10;;
59607;SDS011;45426;44.726;10.390;2022-10-16T06:15:39;15.13;;;6.35;;
59607;SDS011;45426;44.726;10.390;2022-10-16T06:18:08;11.73;;;6.40;;
59607;SDS011;45426;44.726;10.390;2022-10-16T06:20:35;12.95;;;6.78;;
59607;SDS011;45426;44.726;10.390;2022-10-16T06:23:00;11.93;;;5.80;;
59607;SDS011;45426;44.726;10.390;2022-10-16T06:25:26;9.45;;;5.22;;
59607;SDS011;45426;44.726;10.390;2022-10-16T06:27:51;9.95;;;4.72;;
59607;SDS011;45426;44.726;10.390;2022-10-16T06:30:16;10.48;;;4.78;;
59607;SDS011;45426;44.726;10.390;2022-10-16T06:32:42;8.63;;;4.68;;
59607;SDS011;45426;44.726;10.390;2022-10-16T06:35:07;10.95;;;4.45;;
59607;SDS011;45426;44.726;10.390;2022-10-16T06:37:33;7.53;;;4.20;;
59607;SDS011;45426;44.726;10.390;2022-10-16T06:39:58;11.23;;;4.72;;
59607;SDS011;45426;44.726;10.390;2022-10-16T06:42:25;10.45;;;4.53;;
59607;SDS011;45426;44.726;10.390;2022-10-16T06:44:50;8.05;;;4.15;;
59607;SDS011;45426;44.726;10.390;2022-10-16T06:47:15;9.95;;;4.57;;
59607;SDS011;45426;44.726;10.390;2022-10-16T06:49:41;9.05;;;4.55;;
59607;SDS011;45426;44.726;10.390;2022-10-16T06:52:06;10.05;;;4.63;;
59607;SDS011;45426;44.726;10.390;2022-10-16T06:54:32;8.30;;;4.57;;
59607;SDS011;45426;44.726;10.390;2022-10-16T06:56:57;10.13;;;4.40;;
59607;SDS011;45426;44.726;10.390;2022-10-16T06:59:24;8.38;;;4.30;;
59607;SDS011;45426;44.726;10.390;2022-10-16T07:01:50;10.55;;;4.97;;
59607;SDS011;45426;44.726;10.390;2022-10-16T07:04:15;10.60;;;5.15;;
59607;SDS011;45426;44.726;10.390;2022-10-16T07:06:41;11.23;;;4.97;;
59607;SDS011;45426;44.726;10.390;2022-10-16T07:09:08;9.82;;;5.20;;
59607;SDS011;45426;44.726;10.390;2022-10-16T07:11:34;13.25;;;5.72;;
59607;SDS011;45426;44.726;10.390;2022-10-16T07:14:01;13.68;;;5.63;;
59607;SDS011;45426;44.726;10.390;2022-10-16T07:16:28;16.08;;;5.90;;
59607;SDS011;45426;44.726;10.390;2022-10-16T07:18:56;13.43;;;5.50;;
59607;SDS011;45426;44.726;10.390;2022-10-16T07:21:27;11.10;;;5.30;;
59607;SDS011;45426;44.726;10.390;2022-10-16T07:23:59;12.38;;;5.82;;
59607;SDS011;45426;44.726;10.390;2022-10-16T07:26:26;11.90;;;5.65;;
59607;SDS011;45426;44.726;10.390;2022-10-16T07:28:53;9.60;;;6.03;;
59607;SDS011;45426;44.726;10.390;2022-10-16T07:31:19;9.80;;;5.60;;
59607;SDS011;45426;44.726;10.390;2022-10-16T07:33:45;12.05;;;5.95;;
59607;SDS011;45426;44.726;10.390;2022-10-16T07:36:13;10.38;;;5.97;;
59607;SDS011;45426;44.726;10.390;2022-10-16T07:38:40;10.70;;;5.55;;
59607;SDS011;45426;44.726;10.390;2022-10-16T07:41:08;11.63;;;5.78;;
59607;SDS011;45426;44.726;10.390;2022-10-16T07:43:35;11.00;;;5.80;;
59607;SDS011;45426;44.726;10.390;2022-10-16T07:46:01;10.38;;;5.63;;
59607;SDS011;45426;44.726;10.390;2022-10-16T07:48:27;9.90;;;5.43;;
59607;SDS011;45426;44.726;10.390;2022-10-16T07:51:01;12.35;;;5.50;;
59607;SDS011;45426;44.726;10.390;2022-10-16T07:53:28;13.07;;;5.78;;
59607;SDS011;45426;44.726;10.390;2022-10-16T07:55:57;11.50;;;5.88;;
59607;SDS011;45426;44.726;10.390;2022-10-16T07:58:23;11.35;;;5.18;;
59607;SDS011;45426;44.726;10.390;2022-10-16T08:00:49;13.32;;;5.63;;
59607;SDS011;45426;44.726;10.390;2022-10-16T08:03:14;12.93;;;5.88;;
59607;SDS011;45426;44.726;10.390;2022-10-16T08:05:39;12.73;;;5.47;;
59607;SDS011;45426;44.726;10.390;2022-10-16T08:08:05;11.10;;;5.60;;
59607;SDS011;45426;44.726;10.390;2022-10-16T08:10:30;11.13;;;6.03;;
59607;SDS011;45426;44.726;10.390;2022-10-16T08:12:56;11.25;;;5.13;;
59607;SDS011;45426;44.726;10.390;2022-10-16T08:15:22;9.35;;;4.88;;
59607;SDS011;45426;44.726;10.390;2022-10-16T08:17:58;9.75;;;4.80;;
59607;SDS011;45426;44.726;10.390;2022-10-16T08:20:25;11.63;;;4.43;;
59607;SDS011;45426;44.726;10.390;2022-10-16T08:22:51;9.07;;;4.45;;
59607;SDS011;45426;44.726;10.390;2022-10-16T08:25:16;10.00;;;4.68;;
59607;SDS011;45426;44.726;10.390;2022-10-16T08:27:42;12.90;;;4.68;;
59607;SDS011;45426;44.726;10.390;2022-10-16T08:30:08;9.88;;;5.20;;
59607;SDS011;45426;44.726;10.390;2022-10-16T08:32:34;11.13;;;4.95;;
59607;SDS011;45426;44.726;10.390;2022-10-16T08:34:59;11.82;;;4.70;;
59607;SDS011;45426;44.726;10.390;2022-10-16T08:37:24;10.27;;;4.75;;
59607;SDS011;45426;44.726;10.390;2022-10-16T08:39:50;9.10;;;4.55;;
59607;SDS011;45426;44.726;10.390;2022-10-16T08:42:19;10.80;;;4.90;;
59607;SDS011;45426;44.726;10.390;2022-10-16T08:45:31;10.50;;;4.72;;
59607;SDS011;45426;44.726;10.390;2022-10-16T08:50:17;12.55;;;5.07;;
59607;SDS011;45426;44.726;10.390;2022-10-16T08:52:53;9.02;;;4.68;;
59607;SDS011;45426;44.726;10.390;2022-10-16T08:55:30;12.43;;;5.07;;
59607;SDS011;45426;44.726;10.390;2022-10-16T08:57:59;9.73;;;5.13;;
59607;SDS011;45426;44.726;10.390;2022-10-16T09:00:25;9.65;;;5.03;;
59607;SDS011;45426;44.726;10.390;2022-10-16T09:16:30;11.95;;;6.07;;
59607;SDS011;45426;44.726;10.390;2022-10-16T09:21:36;14.95;;;6.47;;
59607;SDS011;45426;44.726;10.390;2022-10-16T09:24:13;12.82;;;6.15;;
59607;SDS011;45426;44.726;10.390;2022-10-16T09:26:42;9.68;;;5.65;;
59607;SDS011;45426;44.726;10.390;2022-10-16T09:29:14;12.95;;;6.05;;
59607;SDS011;45426;44.726;10.390;2022-10-16T09:31:42;12.05;;;5.90;;
59607;SDS011;45426;44.726;10.390;2022-10-16T09:34:29;11.95;;;5.63;;
59607;SDS011;45426;44.726;10.390;2022-10-16T09:36:57;10.63;;;5.97;;
59607;SDS011;45426;44.726;10.390;2022-10-16T09:39:24;11.80;;;6.47;;
59607;SDS011;45426;44.726;10.390;2022-10-16T09:41:50;9.27;;;5.70;;
59607;SDS011;45426;44.726;10.390;2022-10-16T09:46:47;10.80;;;6.07;;
59607;SDS011;45426;44.726;10.390;2022-10-16T09:51:46;12.52;;;5.50;;
59607;SDS011;45426;44.726;10.390;2022-10-16T09:54:13;12.40;;;5.72;;
59607;SDS011;45426;44.726;10.390;2022-10-16T09:56:41;9.10;;;5.30;;
59607;SDS011;45426;44.726;10.390;2022-10-16T09:59:17;13.55;;;5.78;;
59607;SDS011;45426;44.726;10.390;2022-10-16T10:01:50;10.60;;;5.65;;
59607;SDS011;45426;44.726;10.390;2022-10-16T10:04:21;13.32;;;5.85;;
59607;SDS011;45426;44.726;10.390;2022-10-16T10:06:49;13.10;;;5.50;;
59607;SDS011;45426;44.726;10.390;2022-10-16T10:11:50;12.95;;;6.10;;
59607;SDS011;45426;44.726;10.390;2022-10-16T10:14:20;11.13;;;5.30;;
59607;SDS011;45426;44.726;10.390;2022-10-16T10:16:47;12.10;;;5.65;;
59607;SDS011;45426;44.726;10.390;2022-10-16T10:19:18;12.75;;;5.70;;
59607;SDS011;45426;44.726;10.390;2022-10-16T10:21:47;13.57;;;6.18;;
59607;SDS011;45426;44.726;10.390;2022-10-16T10:24:15;11.43;;;6.40;;
59607;SDS011;45426;44.726;10.390;2022-10-16T10:26:44;13.00;;;6.10;;
59607;SDS011;45426;44.726;10.390;2022-10-16T10:29:49;13.38;;;6.20;;
59607;SDS011;45426;44.726;10.390;2022-10-16T10:32:38;15.15;;;5.80;;
59607;SDS011;45426;44.726;10.390;2022-10-16T10:35:28;13.75;;;6.50;;
59607;SDS011;45426;44.726;10.390;2022-10-16T10:41:21;14.15;;;6.38;;
59607;SDS011;45426;44.726;10.390;2022-10-16T10:47:46;12.50;;;7.50;;
59607;SDS011;45426;44.726;10.390;2022-10-16T10:56:00;13.65;;;6.88;;
59607;SDS011;45426;44.726;10.390;2022-10-16T11:01:16;12.77;;;7.28;;
59607;SDS011;45426;44.726;10.390;2022-10-16T11:06:44;17.23;;;7.68;;
59607;SDS011;45426;44.726;10.390;2022-10-16T11:09:16;16.25;;;7.88;;
59607;SDS011;45426;44.726;10.390;2022-10-16T11:11:50;13.73;;;7.63;;
59607;SDS011;45426;44.726;10.390;2022-10-16T11:14:33;17.27;;;8.05;;
59607;SDS011;45426;44.726;10.390;2022-10-16T11:19:37;15.90;;;7.03;;
59607;SDS011;45426;44.726;10.390;2022-10-16T11:22:19;13.20;;;7.60;;
59607;SDS011;45426;44.726;10.390;2022-10-16T11:27:15;12.00;;;7.22;;
59607;SDS011;45426;44.726;10.390;2022-10-16T11:29:58;14.07;;;7.85;;
59607;SDS011;45426;44.726;10.390;2022-10-16T11:32:34;15.52;;;8.13;;
59607;SDS011;45426;44.726;10.390;2022-10-16T11:35:12;14.55;;;8.35;;
59607;SDS011;45426;44.726;10.390;2022-10-16T11:37:45;13.60;;;7.32;;
59607;SDS011;45426;44.726;10.390;2022-10-16T11:40:19;15.93;;;8.07;;
59607;SDS011;45426;44.726;10.390;2022-10-16T11:46:13;14.63;;;8.35;;
59607;SDS011;45426;44.726;10.390;2022-10-16T11:51:16;17.33;;;8.10;;
59607;SDS011;45426;44.726;10.390;2022-10-16T11:54:24;15.77;;;7.93;;
59607;SDS011;45426;44.726;10.390;2022-10-16T11:56:56;16.10;;;7.45;;
59607;SDS011;45426;44.726;10.390;2022-10-16T11:59:42;15.95;;;8.13;;
59607;SDS011;45426;44.726;10.390;2022-10-16T12:02:20;13.63;;;7.75;;
59607;SDS011;45426;44.726;10.390;2022-10-16T12:04:53;17.20;;;8.43;;
59607;SDS011;45426;44.726;10.390;2022-10-16T12:07:32;16.42;;;8.32;;
59607;SDS011;45426;44.726;10.390;2022-10-16T12:10:20;17.55;;;8.45;;
59607;SDS011;45426;44.726;10.390;2022-10-16T12:12:47;16.70;;;8.52;;
59607;SDS011;45426;44.726;10.390;2022-10-16T12:17:51;14.13;;;8.05;;
59607;SDS011;45426;44.726;10.390;2022-10-16T12:22:49;17.45;;;8.68;;
59607;SDS011;45426;44.726;10.390;2022-10-16T12:25:36;20.23;;;9.02;;
59607;SDS011;45426;44.726;10.390;2022-10-16T12:28:21;17.15;;;8.63;;
59607;SDS011;45426;44.726;10.390;2022-10-16T12:31:01;15.02;;;8.73;;
59607;SDS011;45426;44.726;10.390;2022-10-16T12:33:34;18.15;;;8.88;;
59607;SDS011;45426;44.726;10.390;2022-10-16T12:36:28;19.42;;;8.57;;
59607;SDS011;45426;44.726;10.390;2022-10-16T12:38:55;16.42;;;8.43;;
59607;SDS011;45426;44.726;10.390;2022-10-16T12:41:25;16.10;;;8.70;;
59607;SDS011;45426;44.726;10.390;2022-10-16T12:43:52;16.90;;;8.98;;
59607;SDS011;45426;44.726;10.390;2022-10-16T12:48:44;17.25;;;9.48;;
59607;SDS011;45426;44.726;10.390;2022-10-16T12:53:57;18.10;;;9.68;;
59607;SDS011;45426;44.726;10.390;2022-10-16T13:10:17;17.33;;;8.35;;
59607;SDS011;45426;44.726;10.390;2022-10-16T13:13:15;16.15;;;8.40;;
59607;SDS011;45426;44.726;10.390;2022-10-16T13:15:57;18.52;;;9.48;;
59607;SDS011;45426;44.726;10.390;2022-10-16T13:18:48;16.38;;;9.88;;
59607;SDS011;45426;44.726;10.390;2022-10-16T13:21:32;17.15;;;10.02;;
59607;SDS011;45426;44.726;10.390;2022-10-16T13:29:29;17.15;;;9.77;;
59607;SDS011;45426;44.726;10.390;2022-10-16T13:31:59;16.00;;;9.90;;
59607;SDS011;45426;44.726;10.390;2022-10-16T13:34:27;19.80;;;11.32;;
59607;SDS011;45426;44.726;10.390;2022-10-16T13:36:53;16.45;;;10.02;;
59607;SDS011;45426;44.726;10.390;2022-10-16T13:44:50;17.40;;;10.77;;
59607;SDS011;45426;44.726;10.390;2022-10-16T13:47:22;20.15;;;11.30;;
59607;SDS011;45426;44.726;10.390;2022-10-16T13:50:02;20.90;;;11.23;;
59607;SDS011;45426;44.726;10.390;2022-10-16T13:52:30;18.88;;;11.07;;
59607;SDS011;45426;44.726;10.390;2022-10-16T13:54:56;19.02;;;10.98;;
59607;SDS011;45426;44.726;10.390;2022-10-16T13:57:22;22.10;;;10.55;;
59607;SDS011;45426;44.726;10.390;2022-10-16T13:59:49;18.40;;;10.55;;
59607;SDS011;45426;44.726;10.390;2022-10-16T14:04:49;22.88;;;10.40;;
59607;SDS011;45426;44.726;10.390;2022-10-16T14:07:18;19.95;;;11.02;;
59607;SDS011;45426;44.726;10.390;2022-10-16T14:09:49;19.92;;;10.38;;
59607;SDS011;45426;44.726;10.390;2022-10-16T14:12:16;20.90;;;11.25;;
59607;SDS011;45426;44.726;10.390;2022-10-16T14:14:45;21.25;;;11.40;;
59607;SDS011;45426;44.726;10.390;2022-10-16T14:17:13;21.35;;;11.52;;
59607;SDS011;45426;44.726;10.390;2022-10-16T14:19:40;19.52;;;11.60;;
59607;SDS011;45426;44.726;10.390;2022-10-16T14:22:11;21.88;;;12.10;;
59607;SDS011;45426;44.726;10.390;2022-10-16T14:24:47;25.08;;;11.85;;
59607;SDS011;45426;44.726;10.390;2022-10-16T14:27:24;19.88;;;11.40;;
59607;SDS011;45426;44.726;10.390;2022-10-16T14:33:19;21.43;;;11.63;;
59607;SDS011;45426;44.726;10.390;2022-10-16T14:38:28;21.20;;;11.35;;
59607;SDS011;45426;44.726;10.390;2022-10-16T14:40:54;21.60;;;12.23;;
59607;SDS011;45426;44.726;10.390;2022-10-16T14:46:03;19.92;;;11.68;;
59607;SDS011;45426;44.726;10.390;2022-10-16T14:48:31;16.95;;;10.77;;
59607;SDS011;45426;44.726;10.390;2022-10-16T14:50:57;18.98;;;10.40;;
59607;SDS011;45426;44.726;10.390;2022-10-16T14:53:23;22.88;;;11.13;;
59607;SDS011;45426;44.726;10.390;2022-10-16T14:55:48;21.30;;;10.88;;
59607;SDS011;45426;44.726;10.390;2022-10-16T14:58:18;20.00;;;11.30;;
59607;SDS011;45426;44.726;10.390;2022-10-16T15:00:45;20.38;;;11.00;;
59607;SDS011;45426;44.726;10.390;2022-10-16T15:03:11;18.33;;;11.05;;
59607;SDS011;45426;44.726;10.390;2022-10-16T15:05:37;19.42;;;10.70;;
59607;SDS011;45426;44.726;10.390;2022-10-16T15:08:02;20.77;;;11.45;;
59607;SDS011;45426;44.726;10.390;2022-10-16T15:10:29;18.90;;;10.73;;
59607;SDS011;45426;44.726;10.390;2022-10-16T15:12:57;19.00;;;10.18;;
59607;SDS011;45426;44.726;10.390;2022-10-16T15:17:57;19.30;;;10.82;;
59607;SDS011;45426;44.726;10.390;2022-10-16T15:20:32;19.52;;;10.43;;
59607;SDS011;45426;44.726;10.390;2022-10-16T15:23:00;19.35;;;9.75;;
59607;SDS011;45426;44.726;10.390;2022-10-16T15:28:08;17.95;;;9.98;;
59607;SDS011;45426;44.726;10.390;2022-10-16T15:30:34;20.02;;;10.95;;
59607;SDS011;45426;44.726;10.390;2022-10-16T15:33:01;22.05;;;10.43;;
59607;SDS011;45426;44.726;10.390;2022-10-16T15:35:27;19.25;;;10.63;;
59607;SDS011;45426;44.726;10.390;2022-10-16T15:37:53;19.75;;;9.82;;
59607;SDS011;45426;44.726;10.390;2022-10-16T15:40:19;19.63;;;10.07;;
59607;SDS011;45426;44.726;10.390;2022-10-16T15:42:45;21.35;;;10.05;;
59607;SDS011;45426;44.726;10.390;2022-10-16T15:45:11;14.95;;;8.60;;
59607;SDS011;45426;44.726;10.390;2022-10-16T15:47:38;19.98;;;9.45;;
59607;SDS011;45426;44.726;10.390;2022-10-16T15:50:04;16.05;;;9.15;;
59607;SDS011;45426;44.726;10.390;2022-10-16T15:52:30;20.48;;;10.00;;
59607;SDS011;45426;44.726;10.390;2022-10-16T15:54:56;19.10;;;9.23;;
59607;SDS011;45426;44.726;10.390;2022-10-16T15:57:22;18.63;;;9.35;;
59607;SDS011;45426;44.726;10.390;2022-10-16T15:59:48;18.05;;;8.98;;
59607;SDS011;45426;44.726;10.390;2022-10-16T16:02:14;16.70;;;8.75;;
59607;SDS011;45426;44.726;10.390;2022-10-16T16:04:40;15.88;;;8.85;;
59607;SDS011;45426;44.726;10.390;2022-10-16T16:07:05;17.67;;;8.82;;
59607;SDS011;45426;44.726;10.390;2022-10-16T16:09:32;16.05;;;8.60;;
59607;SDS011;45426;44.726;10.390;2022-10-16T16:11:58;17.48;;;8.82;;
59607;SDS011;45426;44.726;10.390;2022-10-16T16:14:26;16.63;;;9.27;;
59607;SDS011;45426;44.726;10.390;2022-10-16T16:16:55;18.50;;;8.85;;
59607;SDS011;45426;44.726;10.390;2022-10-16T16:19:21;14.15;;;8.88;;
59607;SDS011;45426;44.726;10.390;2022-10-16T16:21:49;14.88;;;9.07;;
59607;SDS011;45426;44.726;10.390;2022-10-16T16:24:15;15.73;;;8.30;;
59607;SDS011;45426;44.726;10.390;2022-10-16T16:26:41;16.40;;;9.15;;